Time;durP1;ratioP1;P1;durP2;ratioP2;P2;SDS_P1;SDS_P2;PMS_P1;PMS_P2;Temp;Humidity;BMP_temperature;BMP_pressure;BME280_temperature;BME280_humidity;BME280_pressure;Samples;Min_cycle;Max_cycle;Signal;HPM_P1;HPM_P2
2022/09/24 00:00:06;;;;;;;25.35;10.15;;;18.80;61.70;;;;;;7377722;19;20014;-80
2022/09/24 00:02:35;;;;;;;27.33;10.75;;;18.80;61.90;;;;;;7376175;19;20022;-79
2022/09/24 00:05:07;;;;;;;26.65;12.45;;;18.80;62.20;;;;;;7401042;19;20014;-79
2022/09/24 00:07:36;;;;;;;40.47;20.00;;;18.80;62.30;;;;;;7381924;19;20074;-80
2022/09/24 00:10:05;;;;;;;46.78;24.13;;;18.80;62.50;;;;;;7376110;19;20031;-80
2022/09/24 00:12:35;;;;;;;50.92;23.92;;;18.80;62.40;;;;;;7373914;19;20429;-81
2022/09/24 00:15:03;;;;;;;29.75;14.18;;;18.80;62.40;;;;;;7373972;19;20010;-81
2022/09/24 00:17:32;;;;;;;28.20;13.63;;;18.80;62.50;;;;;;7371390;19;20018;-81
2022/09/24 00:20:01;;;;;;;27.80;14.68;;;18.80;62.70;;;;;;7395647;19;20368;-81
2022/09/24 00:22:34;;;;;;;28.08;12.73;;;18.80;62.90;;;;;;7373046;19;20035;-80
2022/09/24 00:27:44;;;;;;;14.57;7.07;;;18.80;63.10;;;;;;7371724;19;20026;-81
2022/09/24 00:30:14;;;;;;;9.23;5.97;;;18.80;63.10;;;;;;7371976;19;20441;-79
2022/09/24 00:32:43;;;;;;;9.38;5.38;;;18.80;62.90;;;;;;7373888;19;20016;-79
2022/09/24 00:35:11;;;;;;;14.50;5.95;;;18.80;62.90;;;;;;7392739;19;20018;-80
2022/09/24 00:37:43;;;;;;;10.60;5.57;;;18.80;62.90;;;;;;7373574;19;20026;-79
2022/09/24 00:40:14;;;;;;;15.23;7.22;;;18.80;62.70;;;;;;7371403;19;21030;-80
2022/09/24 00:42:43;;;;;;;13.90;5.68;;;18.80;62.80;;;;;;7376230;19;20014;-79
2022/09/24 00:45:12;;;;;;;11.98;5.90;;;18.80;62.90;;;;;;7382004;19;20045;-80
2022/09/24 00:47:43;;;;;;;15.77;6.32;;;18.70;62.60;;;;;;7379328;19;20022;-81
2022/09/24 00:50:19;;;;;;;19.35;8.77;;;18.70;62.70;;;;;;7392609;19;20022;-80
2022/09/24 00:52:55;;;;;;;18.15;9.85;;;18.70;63.00;;;;;;7369766;19;20035;-80
2022/09/24 00:55:25;;;;;;;21.30;9.18;;;18.70;63.30;;;;;;7372957;19;20196;-80
2022/09/24 00:57:57;;;;;;;13.45;7.70;;;18.70;63.70;;;;;;7373138;19;20029;-80
2022/09/24 01:00:27;;;;;;;12.57;7.40;;;18.70;63.90;;;;;;7373116;19;20011;-81
2022/09/24 01:03:01;;;;;;;16.55;7.13;;;18.70;63.90;;;;;;7369066;19;20015;-81
2022/09/24 01:05:30;;;;;;;12.18;6.80;;;18.70;64.00;;;;;;7372944;19;20028;-81
2022/09/24 01:08:01;;;;;;;9.90;6.43;;;18.70;63.80;;;;;;7391681;19;20022;-81
2022/09/24 01:10:52;;;;;;;10.90;6.65;;;18.60;63.90;;;;;;7372838;19;20026;-81
2022/09/24 01:13:39;;;;;;;10.65;6.25;;;18.60;64.10;;;;;;7372684;19;20337;-81
2022/09/24 01:16:13;;;;;;;13.35;6.28;;;18.50;64.20;;;;;;7382043;19;20011;-80
2022/09/24 01:18:48;;;;;;;10.57;5.95;;;18.50;64.30;;;;;;7391814;19;20022;-81
2022/09/24 01:21:31;;;;;;;11.98;7.18;;;18.50;64.40;;;;;;7388410;19;20038;-80
2022/09/24 01:24:25;;;;;;;10.75;6.15;;;18.50;64.60;;;;;;7382848;19;20022;-80
2022/09/24 01:27:05;;;;;;;12.45;6.97;;;18.50;64.80;;;;;;7378009;19;20373;-81
2022/09/24 01:29:43;;;;;;;11.30;6.70;;;18.50;64.70;;;;;;7374513;19;20082;-81
2022/09/24 01:32:21;;;;;;;11.60;6.60;;;18.50;65.10;;;;;;7397742;19;20730;-80
2022/09/24 01:34:53;;;;;;;11.55;6.70;;;18.50;65.30;;;;;;7379776;19;20078;-81
2022/09/24 01:37:25;;;;;;;12.20;6.47;;;18.50;65.30;;;;;;7379251;19;20066;-81
2022/09/24 01:39:56;;;;;;;13.40;7.05;;;18.50;65.50;;;;;;7381111;19;20019;-81
2022/09/24 01:42:27;;;;;;;14.50;7.40;;;18.50;66.10;;;;;;7380817;19;20089;-81
2022/09/24 01:45:00;;;;;;;13.75;6.90;;;18.50;66.50;;;;;;7380062;19;20011;-81
2022/09/24 01:47:32;;;;;;;14.07;7.90;;;18.40;66.60;;;;;;7379262;19;20010;-80
2022/09/24 01:50:02;;;;;;;11.38;6.85;;;18.40;66.80;;;;;;7401958;19;20018;-80
2022/09/24 01:52:35;;;;;;;13.75;7.32;;;18.40;66.90;;;;;;7379158;19;20051;-80
2022/09/24 01:55:08;;;;;;;19.15;7.25;;;18.30;67.20;;;;;;7376073;19;20459;-80
2022/09/24 01:57:40;;;;;;;10.48;6.63;;;18.30;68.00;;;;;;7379484;19;20027;-80
2022/09/24 02:00:14;;;;;;;12.23;7.32;;;18.30;68.10;;;;;;7376631;19;20021;-80
2022/09/24 02:02:47;;;;;;;11.00;7.13;;;18.30;68.50;;;;;;7377182;19;20020;-80
2022/09/24 02:05:22;;;;;;;13.35;7.30;;;18.30;68.80;;;;;;7403639;19;20022;-80
2022/09/24 02:07:58;;;;;;;9.73;6.78;;;18.40;69.10;;;;;;7381708;19;20014;-81
2022/09/24 02:10:30;;;;;;;15.05;7.60;;;18.30;69.00;;;;;;7381004;19;20018;-81
2022/09/24 02:13:03;;;;;;;13.88;7.20;;;18.40;69.40;;;;;;7380838;19;20016;-80
2022/09/24 02:15:38;;;;;;;13.80;7.43;;;18.40;69.60;;;;;;7375493;19;20019;-80
2022/09/24 02:18:10;;;;;;;11.20;7.45;;;18.40;69.70;;;;;;7376727;19;20025;-80
2022/09/24 02:20:44;;;;;;;12.40;7.68;;;18.40;69.80;;;;;;7377332;19;20563;-81
2022/09/24 02:23:15;;;;;;;12.80;7.40;;;18.30;69.80;;;;;;7396462;19;20015;-81
2022/09/24 02:25:49;;;;;;;13.77;7.97;;;18.30;70.20;;;;;;7375386;19;20039;-80
2022/09/24 02:28:18;;;;;;;12.85;7.50;;;18.30;70.40;;;;;;7376604;19;20082;-79
2022/09/24 02:30:53;;;;;;;13.63;7.38;;;18.30;70.30;;;;;;7375847;19;20019;-79
2022/09/24 02:36:07;;;;;;;13.65;7.57;;;18.30;69.80;;;;;;7375976;19;20047;-79
2022/09/24 02:38:37;;;;;;;12.02;7.45;;;18.20;69.80;;;;;;7374930;19;20445;-79
2022/09/24 02:41:07;;;;;;;13.70;7.60;;;18.20;70.00;;;;;;7400817;19;20035;-79
2022/09/24 02:43:35;;;;;;;14.43;7.85;;;18.20;70.20;;;;;;7377167;19;20014;-79
2022/09/24 02:46:08;;;;;;;14.88;7.70;;;18.10;70.50;;;;;;7376098;19;20146;-79
2022/09/24 02:48:37;;;;;;;12.02;7.60;;;18.10;70.80;;;;;;7376705;19;20025;-79
2022/09/24 02:51:07;;;;;;;11.75;7.72;;;18.20;70.70;;;;;;7372497;19;20023;-79
2022/09/24 02:53:36;;;;;;;12.73;7.13;;;18.10;70.90;;;;;;7373610;19;20338;-80
2022/09/24 02:56:06;;;;;;;15.57;7.65;;;18.20;71.00;;;;;;7394374;19;20110;-79
2022/09/24 02:58:36;;;;;;;12.35;6.97;;;18.20;71.00;;;;;;7373268;19;20022;-79
2022/09/24 03:01:08;;;;;;;12.43;7.60;;;18.20;71.00;;;;;;7373507;19;20018;-79
2022/09/24 03:03:37;;;;;;;11.02;7.70;;;18.20;71.10;;;;;;7374309;19;20021;-79
2022/09/24 03:06:06;;;;;;;13.23;7.47;;;18.20;70.90;;;;;;7374257;19;20046;-79
2022/09/24 03:08:35;;;;;;;13.65;7.65;;;18.20;71.20;;;;;;7372864;19;20089;-80
2022/09/24 03:11:04;;;;;;;11.88;7.47;;;18.10;71.30;;;;;;7395287;19;20042;-79
2022/09/24 03:13:32;;;;;;;18.05;7.80;;;18.20;71.20;;;;;;7374283;19;20086;-80
2022/09/24 03:16:01;;;;;;;15.18;7.88;;;18.10;71.40;;;;;;7375005;19;20018;-81
2022/09/24 03:18:33;;;;;;;11.02;7.72;;;18.20;71.60;;;;;;7376169;19;20079;-79
2022/09/24 03:21:03;;;;;;;12.73;7.88;;;18.10;71.70;;;;;;7375192;19;20006;-80
2022/09/24 03:23:32;;;;;;;12.93;8.13;;;18.20;71.60;;;;;;7372981;19;20014;-80
2022/09/24 03:26:01;;;;;;;13.75;7.93;;;18.10;71.60;;;;;;7394881;19;20046;-79
2022/09/24 03:28:29;;;;;;;14.93;8.15;;;18.20;71.70;;;;;;7373835;19;20015;-79
2022/09/24 03:30:58;;;;;;;18.98;9.18;;;18.10;71.60;;;;;;7373626;19;20023;-79
2022/09/24 03:33:28;;;;;;;15.55;8.73;;;18.20;71.80;;;;;;7374246;19;20501;-79
2022/09/24 03:36:02;;;;;;;12.77;8.05;;;18.10;71.80;;;;;;7371642;19;20022;-79
2022/09/24 03:38:31;;;;;;;14.90;7.95;;;18.10;71.40;;;;;;7374044;19;20094;-79
2022/09/24 03:41:01;;;;;;;14.70;8.48;;;18.10;71.50;;;;;;7392128;19;20018;-79
2022/09/24 03:43:30;;;;;;;14.73;8.73;;;18.10;71.50;;;;;;7373579;19;20028;-79
2022/09/24 03:45:59;;;;;;;15.18;8.55;;;18.10;71.60;;;;;;7371726;19;20033;-79
2022/09/24 03:48:28;;;;;;;13.98;9.15;;;18.10;72.60;;;;;;7374809;19;20417;-79
2022/09/24 03:51:04;;;;;;;16.17;9.15;;;18.10;71.80;;;;;;7374639;19;20018;-79
2022/09/24 03:53:33;;;;;;;13.13;8.60;;;18.10;71.90;;;;;;7371840;19;20026;-79
2022/09/24 03:56:04;;;;;;;18.38;9.07;;;18.10;72.90;;;;;;7392969;19;20019;-79
2022/09/24 03:58:37;;;;;;;16.23;8.63;;;18.10;72.00;;;;;;7373315;19;20037;-79
2022/09/24 04:01:06;;;;;;;18.17;8.82;;;18.10;71.70;;;;;;7373036;19;20110;-79
2022/09/24 04:03:35;;;;;;;15.75;8.52;;;18.10;71.80;;;;;;7375455;19;20037;-79
2022/09/24 04:06:08;;;;;;;12.57;8.55;;;18.10;72.00;;;;;;7377367;19;20062;-80
2022/09/24 04:08:37;;;;;;;14.15;8.85;;;18.10;72.20;;;;;;7377518;19;20033;-79
2022/09/24 04:11:06;;;;;;;14.82;8.80;;;18.10;72.20;;;;;;7393862;19;20697;-79
2022/09/24 04:13:35;;;;;;;15.07;8.57;;;18.10;72.20;;;;;;7372281;19;20010;-78
2022/09/24 04:16:04;;;;;;;12.77;8.10;;;18.10;72.20;;;;;;7369565;19;20031;-79
2022/09/24 04:18:33;;;;;;;15.75;8.73;;;18.10;72.40;;;;;;7373196;19;20339;-78
2022/09/24 04:21:02;;;;;;;17.65;8.38;;;18.10;72.30;;;;;;7372595;19;20027;-79
2022/09/24 04:23:34;;;;;;;14.20;8.80;;;18.10;72.20;;;;;;7371754;19;20011;-78
2022/09/24 04:26:02;;;;;;;;;;;18.10;72.30;;;;;;7395290;19;20098;-79
2022/09/24 04:28:32;;;;;;;16.50;8.77;;;18.10;72.40;;;;;;7372445;19;19915;-79
2022/09/24 04:31:01;;;;;;;16.85;8.90;;;18.10;71.70;;;;;;7371674;19;20096;-81
2022/09/24 04:33:30;;;;;;;16.90;9.13;;;18.10;71.70;;;;;;7375178;19;20014;-81
2022/09/24 04:36:00;;;;;;;18.00;9.07;;;18.00;71.70;;;;;;7373003;19;20034;-81
2022/09/24 04:38:30;;;;;;;13.98;8.40;;;18.00;71.90;;;;;;7375205;19;20750;-79
2022/09/24 04:41:09;;;;;;;15.07;8.98;;;18.00;72.30;;;;;;7395763;19;20022;-81
2022/09/24 04:43:38;;;;;;;13.73;8.73;;;18.00;72.50;;;;;;7373594;19;20127;-79
2022/09/24 04:46:08;;;;;;;12.93;9.07;;;18.10;72.50;;;;;;7371795;19;20018;-80
2022/09/24 04:48:38;;;;;;;14.07;9.20;;;18.10;72.50;;;;;;7372443;19;20457;-78
2022/09/24 04:51:08;;;;;;;12.13;8.48;;;18.00;72.40;;;;;;7368756;19;20077;-79
2022/09/24 04:53:38;;;;;;;12.60;8.60;;;18.00;72.30;;;;;;7371592;19;20014;-81
2022/09/24 04:56:13;;;;;;;16.52;8.90;;;18.00;72.20;;;;;;7392651;19;20049;-80
2022/09/24 04:58:42;;;;;;;12.88;8.98;;;18.00;72.50;;;;;;7373554;19;20006;-80
2022/09/24 05:01:12;;;;;;;16.67;9.38;;;18.00;72.40;;;;;;7372877;19;20130;-79
2022/09/24 05:03:43;;;;;;;16.52;8.65;;;18.00;72.60;;;;;;7372965;19;20014;-80
2022/09/24 05:06:12;;;;;;;;;;;18.00;72.70;;;;;;7372000;19;20082;-80
2022/09/24 05:08:41;;;;;;;14.88;9.13;;;18.10;72.70;;;;;;7373051;19;19942;-81
2022/09/24 05:11:13;;;;;;;15.50;9.48;;;18.00;72.30;;;;;;7393062;19;20070;-80
2022/09/24 05:13:42;;;;;;;13.75;9.15;;;17.90;72.50;;;;;;7368965;19;20022;-80
2022/09/24 05:16:11;;;;;;;11.75;8.63;;;17.90;72.70;;;;;;7371391;19;20022;-79
2022/09/24 05:18:43;;;;;;;17.80;9.68;;;17.80;72.80;;;;;;7370410;19;20010;-80
2022/09/24 05:21:12;;;;;;;14.07;9.57;;;17.70;73.10;;;;;;7372421;19;20368;-80
2022/09/24 05:23:41;;;;;;;13.93;9.25;;;17.70;73.60;;;;;;7368248;19;20053;-79
2022/09/24 05:28:55;;;;;;;18.73;9.98;;;17.60;74.30;;;;;;7372190;19;20441;-79
2022/09/24 05:31:26;;;;;;;16.05;9.80;;;17.60;74.60;;;;;;7372781;19;20053;-79
2022/09/24 05:33:56;;;;;;;19.20;10.40;;;17.60;74.70;;;;;;7371859;19;20014;-79
2022/09/24 05:36:25;;;;;;;19.83;10.63;;;17.60;74.70;;;;;;7370699;19;20363;-79
2022/09/24 05:38:54;;;;;;;19.42;11.38;;;17.60;75.00;;;;;;7370519;19;20055;-80
2022/09/24 05:41:26;;;;;;;18.50;9.80;;;17.70;75.10;;;;;;7375443;19;20010;-79
2022/09/24 05:43:58;;;;;;;;;;;17.60;74.90;;;;;;7389523;19;20359;-79
2022/09/24 05:46:28;;;;;;;23.15;10.70;;;17.80;75.20;;;;;;7366031;19;19960;-79
2022/09/24 05:48:59;;;;;;;16.92;10.13;;;17.70;74.90;;;;;;7370566;19;20018;-79
2022/09/24 05:51:28;;;;;;;;;;;17.70;75.00;;;;;;7367775;19;20040;-79
2022/09/24 05:53:59;;;;;;;17.73;10.27;;;17.80;75.30;;;;;;7369934;19;20396;-79
2022/09/24 05:56:30;;;;;;;;;;;17.80;75.20;;;;;;7373721;19;20023;-80
2022/09/24 05:58:59;;;;;;;17.73;10.63;;;17.80;75.50;;;;;;7394601;19;19926;-80
2022/09/24 06:01:30;;;;;;;21.00;12.13;;;17.80;75.80;;;;;;7378605;19;20090;-79
2022/09/24 06:03:58;;;;;;;20.95;10.45;;;17.80;76.30;;;;;;7379434;19;20090;-80
2022/09/24 06:06:29;;;;;;;21.63;11.10;;;17.80;76.60;;;;;;7381383;19;20007;-79
2022/09/24 06:08:58;;;;;;;23.50;11.65;;;17.70;76.60;;;;;;7376874;19;20265;-79
2022/09/24 06:11:32;;;;;;;21.80;12.40;;;17.80;76.60;;;;;;7376011;19;20445;-79
2022/09/24 06:14:04;;;;;;;22.30;11.63;;;17.70;76.90;;;;;;7395698;19;20374;-79
2022/09/24 06:16:35;;;;;;;23.67;12.00;;;17.70;77.60;;;;;;7374803;19;20058;-79
2022/09/24 06:19:03;;;;;;;20.80;11.77;;;17.70;78.10;;;;;;7376211;19;20011;-79
2022/09/24 06:21:33;;;;;;;21.70;11.93;;;17.70;78.60;;;;;;7376387;19;20031;-79
2022/09/24 06:24:02;;;;;;;23.73;12.30;;;17.70;78.50;;;;;;7377955;19;20047;-79
2022/09/24 06:26:31;;;;;;;21.85;11.13;;;17.70;78.60;;;;;;7375059;19;20015;-78
2022/09/24 06:29:03;;;;;;;20.20;10.98;;;17.70;78.90;;;;;;7393969;19;20035;-79
2022/09/24 06:31:31;;;;;;;;;;;17.70;79.00;;;;;;7374110;19;20018;-79
2022/09/24 06:34:01;;;;;;;20.40;11.90;;;17.80;79.00;;;;;;7378727;19;19927;-79
2022/09/24 06:36:30;;;;;;;20.65;10.45;;;17.70;78.70;;;;;;7377006;19;20011;-79
2022/09/24 06:38:59;;;;;;;18.50;10.23;;;17.80;78.90;;;;;;7376019;19;20016;-78
2022/09/24 06:41:28;;;;;;;20.10;10.23;;;17.70;79.30;;;;;;7375547;19;20015;-79
2022/09/24 06:43:57;;;;;;;16.02;10.23;;;17.70;79.30;;;;;;7396193;19;20030;-78
2022/09/24 06:46:29;;;;;;;17.77;10.20;;;17.70;79.40;;;;;;7375302;19;20022;-78
2022/09/24 06:48:57;;;;;;;;;;;17.70;79.50;;;;;;7379279;19;20054;-77
2022/09/24 06:51:26;;;;;;;20.42;10.77;;;17.80;79.10;;;;;;7373561;19;20302;-78
2022/09/24 06:53:55;;;;;;;16.90;11.30;;;17.70;79.20;;;;;;7374841;19;20035;-78
2022/09/24 06:56:27;;;;;;;17.60;11.40;;;17.70;79.20;;;;;;7375987;19;20022;-78
2022/09/24 06:58:56;;;;;;;18.05;11.18;;;17.60;79.60;;;;;;7395253;19;20022;-78
2022/09/24 07:01:25;;;;;;;18.20;10.60;;;17.70;80.10;;;;;;7372707;19;20014;-78
2022/09/24 07:03:56;;;;;;;18.83;10.32;;;17.70;80.00;;;;;;7374360;19;20071;-78
2022/09/24 07:06:25;;;;;;;16.88;9.60;;;17.70;79.90;;;;;;7374982;19;20022;-77
2022/09/24 07:08:55;;;;;;;28.15;10.63;;;17.70;80.30;;;;;;7373769;19;20784;-77
2022/09/24 07:11:24;;;;;;;19.90;10.02;;;17.70;80.50;;;;;;7369672;19;20018;-78
2022/09/24 07:13:54;;;;;;;21.85;9.82;;;17.80;80.70;;;;;;7394007;19;20044;-77
2022/09/24 07:16:22;;;;;;;15.48;9.10;;;17.70;80.40;;;;;;7372655;19;20384;-77
2022/09/24 07:18:51;;;;;;;15.88;9.50;;;17.80;80.50;;;;;;7372512;19;20014;-77
2022/09/24 07:21:23;;;;;;;13.98;9.20;;;17.80;80.50;;;;;;7369474;19;20014;-77
2022/09/24 07:23:51;;;;;;;13.57;8.77;;;17.80;80.50;;;;;;7374957;19;20031;-77
2022/09/24 07:26:20;;;;;;;14.05;8.00;;;17.80;80.60;;;;;;7395455;19;20089;-79
2022/09/24 07:28:49;;;;;;;14.38;8.55;;;17.80;80.50;;;;;;7374272;19;20438;-79
2022/09/24 07:31:18;;;;;;;12.48;7.72;;;17.80;79.90;;;;;;7370871;19;20035;-79
2022/09/24 07:33:47;;;;;;;16.25;8.40;;;17.80;79.90;;;;;;7374797;19;20032;-77
2022/09/24 07:36:15;;;;;;;17.35;8.30;;;17.80;79.90;;;;;;7371789;19;20451;-78
2022/09/24 07:38:47;;;;;;;13.02;8.07;;;17.70;80.20;;;;;;7372281;19;20035;-77
2022/09/24 07:41:17;;;;;;;13.60;8.38;;;17.80;80.50;;;;;;7395265;19;20025;-78
2022/09/24 07:43:46;;;;;;;12.15;8.00;;;17.80;80.50;;;;;;7371605;19;20014;-78
2022/09/24 07:46:15;;;;;;;17.98;8.55;;;17.80;80.60;;;;;;7371686;19;20036;-77
2022/09/24 07:48:44;;;;;;;14.70;8.10;;;17.90;80.70;;;;;;7374944;19;20701;-78
2022/09/24 07:51:13;;;;;;;12.05;8.30;;;17.90;80.40;;;;;;7372122;19;20022;-77
2022/09/24 07:53:42;;;;;;;11.70;8.45;;;17.90;80.50;;;;;;7374326;19;20492;-78
2022/09/24 07:56:13;;;;;;;16.17;8.70;;;17.90;80.60;;;;;;7389943;19;20019;-80
2022/09/24 07:58:42;;;;;;;;;;;17.90;80.90;;;;;;7372282;19;20031;-79
2022/09/24 08:01:11;;;;;;;15.07;8.85;;;18.00;81.30;;;;;;7371201;19;19994;-78
2022/09/24 08:03:40;;;;;;;17.08;8.80;;;18.00;81.80;;;;;;7370494;19;20018;-78
2022/09/24 08:06:10;;;;;;;16.02;8.65;;;18.00;81.10;;;;;;7374140;19;20011;-78
2022/09/24 08:08:39;;;;;;;13.10;8.68;;;18.00;81.10;;;;;;7373527;19;20327;-78
2022/09/24 08:11:09;;;;;;;58.22;37.20;;;18.00;81.20;;;;;;7393614;19;20085;-78
2022/09/24 08:13:41;;;;;;;39.03;23.48;;;18.10;81.40;;;;;;7370554;19;20035;-78
2022/09/24 08:16:10;;;;;;;19.00;11.70;;;18.00;81.20;;;;;;7372111;19;20089;-78
2022/09/24 08:18:39;;;;;;;16.45;10.93;;;18.10;81.20;;;;;;7372996;19;20440;-78
2022/09/24 08:21:09;;;;;;;16.23;10.38;;;18.10;81.40;;;;;;7372256;19;20018;-77
2022/09/24 08:23:39;;;;;;;19.15;10.20;;;18.10;81.40;;;;;;7370111;19;20030;-78
2022/09/24 08:26:08;;;;;;;18.38;11.80;;;18.10;81.40;;;;;;7392032;19;20022;-77
2022/09/24 08:28:40;;;;;;;18.00;11.23;;;18.10;81.30;;;;;;7371688;19;20035;-78
2022/09/24 08:31:12;;;;;;;17.17;10.68;;;18.10;81.20;;;;;;7370401;19;20015;-78
2022/09/24 08:33:42;;;;;;;17.98;11.60;;;18.20;81.20;;;;;;7371504;19;20029;-78
2022/09/24 08:36:11;;;;;;;18.33;11.43;;;18.20;81.20;;;;;;7370056;19;20018;-78
2022/09/24 08:38:40;;;;;;;17.55;11.27;;;18.20;81.00;;;;;;7370631;19;20037;-78
2022/09/24 08:41:31;;;;;;;17.88;11.50;;;18.20;81.00;;;;;;7391148;19;20014;-78
2022/09/24 08:44:06;;;;;;;20.98;11.73;;;18.20;81.00;;;;;;7370036;19;20014;-80
2022/09/24 08:49:26;;;;;;;19.50;11.48;;;18.20;81.00;;;;;;7369693;19;20010;-78
2022/09/24 08:52:03;;;;;;;19.63;11.45;;;18.20;81.20;;;;;;7371042;19;20344;-78
2022/09/24 08:54:35;;;;;;;18.17;12.18;;;18.20;81.30;;;;;;7370635;19;20037;-78
2022/09/24 08:57:12;;;;;;;28.25;13.23;;;18.20;81.20;;;;;;7370564;19;20120;-77
2022/09/24 08:59:46;;;;;;;18.08;12.00;;;18.30;81.30;;;;;;7369287;19;20035;-78
2022/09/24 09:02:27;;;;;;;18.83;12.52;;;18.30;81.30;;;;;;7392174;19;20110;-78
2022/09/24 09:05:06;;;;;;;26.88;13.35;;;18.30;81.40;;;;;;7370735;19;20025;-78
2022/09/24 09:07:44;;;;;;;20.50;12.85;;;18.30;82.40;;;;;;7369375;19;20348;-78
2022/09/24 09:10:16;;;;;;;21.73;13.48;;;18.30;81.40;;;;;;7369098;19;20302;-78
2022/09/24 09:12:50;;;;;;;20.05;13.27;;;18.40;81.40;;;;;;7372221;19;20020;-78
2022/09/24 09:15:23;;;;;;;23.33;13.60;;;18.40;81.50;;;;;;7372729;19;20010;-77
2022/09/24 09:17:56;;;;;;;22.52;13.68;;;18.40;81.60;;;;;;7370819;19;20031;-78
2022/09/24 09:20:29;;;;;;;21.65;13.80;;;18.40;81.70;;;;;;7370730;19;20098;-79
2022/09/24 09:23:00;;;;;;;20.77;14.15;;;18.40;81.40;;;;;;7390836;19;20026;-79
2022/09/24 09:25:33;;;;;;;25.55;14.20;;;18.40;81.00;;;;;;7368097;19;20330;-78
2022/09/24 09:28:03;;;;;;;25.95;13.32;;;18.40;81.40;;;;;;7371285;19;20037;-78
2022/09/24 10:57:15;;;;;;;6.32;4.60;;;19.20;75.00;;;;;;7431354;19;20013;-79
2022/09/24 10:59:57;;;;;;;6.93;4.83;;;19.20;75.10;;;;;;7251495;19;2951505;-79
2022/09/24 11:02:58;;;;;;;8.20;5.50;;;19.20;74.70;;;;;;7402053;19;20025;-79
2022/09/24 11:05:32;;;;;;;8.57;5.70;;;19.20;74.60;;;;;;7404906;19;20018;-81
2022/09/24 11:08:14;;;;;;;8.07;5.63;;;19.30;75.40;;;;;;7416286;19;20018;-80
2022/09/24 11:11:08;;;;;;;8.98;5.85;;;19.30;74.80;;;;;;7441037;19;20068;-79
2022/09/24 11:13:45;;;;;;;11.63;6.55;;;19.40;75.20;;;;;;7408402;19;20027;-79
2022/09/24 11:16:43;;;;;;;9.85;7.50;;;19.60;75.10;;;;;;7405413;19;20017;-79
2022/09/24 11:19:22;;;;;;;11.88;6.95;;;19.60;75.00;;;;;;7406880;19;20015;-79
2022/09/24 11:22:03;;;;;;;15.43;8.65;;;19.80;73.90;;;;;;7403491;19;20006;-79
2022/09/24 11:24:49;;;;;;;13.00;8.82;;;19.80;73.50;;;;;;7404125;19;20019;-79
2022/09/24 11:27:40;;;;;;;14.63;8.88;;;19.90;73.60;;;;;;7404227;19;20064;-79
2022/09/24 11:30:13;;;;;;;10.88;8.18;;;19.90;73.60;;;;;;7402304;19;20024;-79
2022/09/24 11:33:00;;;;;;;15.23;9.57;;;20.00;73.00;;;;;;7400024;19;20011;-79
2022/09/24 11:35:55;;;;;;;15.98;9.68;;;19.90;73.20;;;;;;7401902;19;20010;-79
2022/09/24 11:38:33;;;;;;;13.68;9.00;;;19.90;73.50;;;;;;7400395;19;20018;-80
2022/09/24 11:41:20;;;;;;;14.30;9.32;;;20.00;73.30;;;;;;7399858;19;20430;-80
2022/09/24 11:44:22;;;;;;;13.90;8.52;;;20.00;73.40;;;;;;7400632;19;20007;-79
2022/09/24 11:47:04;;;;;;;13.52;8.27;;;20.10;73.30;;;;;;7400282;19;20006;-79
2022/09/24 11:49:55;;;;;;;13.38;9.23;;;20.10;72.50;;;;;;7421712;19;20026;-79
2022/09/24 11:52:34;;;;;;;13.25;8.90;;;20.20;72.50;;;;;;7400410;19;20024;-80
2022/09/24 11:55:12;;;;;;;13.63;9.70;;;20.30;72.00;;;;;;7380202;19;20435;-79
2022/09/24 11:57:45;;;;;;;15.25;9.45;;;20.30;69.70;;;;;;7392933;19;20043;-80
2022/09/24 12:00:17;;;;;;;11.75;8.55;;;20.40;70.30;;;;;;7398497;19;20006;-79
2022/09/24 12:02:50;;;;;;;14.95;8.07;;;20.50;70.30;;;;;;7401126;19;20009;-78
2022/09/24 12:05:29;;;;;;;13.00;8.10;;;20.50;69.70;;;;;;7400032;19;20050;-81
2022/09/24 12:08:06;;;;;;;12.07;8.07;;;20.50;68.50;;;;;;7399247;19;20730;-79
2022/09/24 12:10:39;;;;;;;13.65;7.88;;;20.60;68.80;;;;;;7397685;19;20017;-80
2022/09/24 12:13:17;;;;;;;16.80;8.82;;;20.70;69.00;;;;;;7372200;19;20098;-80
2022/09/24 12:15:53;;;;;;;11.10;7.50;;;20.70;69.00;;;;;;7392873;19;20014;-81
2022/09/24 12:18:27;;;;;;;12.48;8.10;;;20.80;69.10;;;;;;7384560;19;20014;-83
2022/09/24 12:21:03;;;;;;;11.52;7.47;;;20.70;68.90;;;;;;7375394;19;20028;-83
2022/09/24 12:23:38;;;;;;;14.55;7.90;;;20.70;68.60;;;;;;7376759;19;20011;-81
2022/09/24 12:26:08;;;;;;;11.20;7.70;;;20.80;68.70;;;;;;7374690;19;20023;-82
2022/09/24 12:34:26;;;;;;;9.55;6.47;;;20.70;68.40;;;;;;7395974;19;20023;-81
2022/09/24 12:37:06;;;;;;;7.85;5.97;;;20.70;66.50;;;;;;7389440;19;20687;-83
2022/09/24 12:39:40;;;;;;;7.32;5.25;;;20.80;66.20;;;;;;7377143;19;20639;-82
2022/09/24 12:42:12;;;;;;;7.55;5.10;;;20.80;64.60;;;;;;7371554;19;20129;-81
2022/09/24 12:44:45;;;;;;;10.90;5.88;;;20.90;64.70;;;;;;7371367;19;20036;-82
2022/09/24 12:47:22;;;;;;;10.85;4.90;;;20.90;63.60;;;;;;7373690;19;20027;-81
2022/09/24 12:49:56;;;;;;;9.13;5.20;;;20.90;65.00;;;;;;7372194;19;20015;-82
2022/09/24 12:52:36;;;;;;;11.80;5.22;;;20.90;66.40;;;;;;7391116;19;20050;-82
2022/09/24 12:55:07;;;;;;;7.68;4.88;;;21.00;66.10;;;;;;7371848;19;20021;-81
2022/09/24 12:57:39;;;;;;;9.13;5.47;;;21.00;65.60;;;;;;7373218;19;20024;-81
2022/09/24 13:00:36;;;;;;;6.25;4.65;;;21.00;63.70;;;;;;7370920;19;20035;-82
2022/09/24 13:03:05;;;;;;;7.97;5.05;;;21.00;65.10;;;;;;7371293;19;20011;-81
2022/09/24 13:05:47;;;;;;;8.40;5.32;;;21.10;64.40;;;;;;7371734;19;20014;-87
2022/09/24 13:08:36;;;;;;;10.38;5.90;;;21.10;63.80;;;;;;7386760;19;20018;-86
2022/09/24 13:11:26;;;;;;;9.27;5.35;;;21.10;64.70;;;;;;7377511;19;20024;-86
2022/09/24 13:14:07;;;;;;;10.32;6.55;;;21.10;66.00;;;;;;7366714;19;20484;-86
2022/09/24 13:16:40;;;;;;;;;;;21.10;64.70;;;;;;7392344;19;20098;-86
2022/09/24 13:19:26;;;;;;;8.18;5.75;;;21.30;65.00;;;;;;7372514;19;19927;-86
2022/09/24 13:21:58;;;;;;;8.48;5.55;;;21.30;65.30;;;;;;7370490;19;20022;-86
2022/09/24 13:24:35;;;;;;;10.88;5.65;;;21.30;64.30;;;;;;7371532;19;20019;-85
2022/09/24 13:27:23;;;;;;;10.77;5.78;;;21.30;65.00;;;;;;7370771;19;20291;-86
2022/09/24 13:30:04;;;;;;;8.25;5.10;;;21.30;63.50;;;;;;7371470;19;20032;-85
2022/09/24 13:32:38;;;;;;;7.85;5.13;;;21.30;63.80;;;;;;7373646;19;20011;-85
2022/09/24 13:35:12;;;;;;;9.18;5.22;;;21.30;64.40;;;;;;7370835;19;20026;-85
2022/09/24 13:37:45;;;;;;;9.63;5.22;;;21.30;63.50;;;;;;7392248;19;20430;-86
2022/09/24 13:40:22;;;;;;;7.28;4.85;;;21.30;63.80;;;;;;7372160;19;20019;-85
2022/09/24 13:42:57;;;;;;;7.88;5.60;;;21.20;64.70;;;;;;7369410;19;20068;-85
2022/09/24 13:45:27;;;;;;;7.30;5.38;;;21.20;63.90;;;;;;7372142;19;20019;-86
2022/09/24 13:47:58;;;;;;;6.95;4.85;;;21.00;63.90;;;;;;7378866;19;20031;-85
2022/09/24 13:50:31;;;;;;;6.85;4.80;;;20.90;64.60;;;;;;7380337;19;20027;-85
2022/09/24 13:53:05;;;;;;;8.40;5.38;;;20.90;64.90;;;;;;7375397;19;20347;-83
2022/09/24 13:55:40;;;;;;;11.50;5.30;;;20.80;65.00;;;;;;7396091;19;20025;-85
2022/09/24 13:58:28;;;;;;;8.30;5.30;;;20.70;64.40;;;;;;7373450;19;20094;-85
2022/09/24 14:01:02;;;;;;;8.50;5.25;;;20.60;64.60;;;;;;7370261;19;20010;-85
2022/09/24 14:03:33;;;;;;;7.22;4.65;;;20.50;64.90;;;;;;7371211;19;20017;-84
2022/09/24 14:06:07;;;;;;;8.15;5.00;;;20.40;65.50;;;;;;7372609;19;20018;-86
2022/09/24 14:08:38;;;;;;;10.60;4.88;;;20.40;65.80;;;;;;7373062;19;20027;-87
2022/09/24 14:11:17;;;;;;;7.75;4.47;;;20.40;65.00;;;;;;7372121;19;20350;-88
2022/09/24 14:13:46;;;;;;;7.25;4.53;;;20.30;64.40;;;;;;7379863;19;20015;-87
2022/09/24 14:16:18;;;;;;;6.88;5.18;;;20.20;65.00;;;;;;7391278;19;20028;-87
2022/09/24 14:18:48;;;;;;;7.28;5.03;;;20.20;65.50;;;;;;7373400;19;20019;-86
2022/09/24 14:21:25;;;;;;;8.57;4.78;;;20.20;66.10;;;;;;7373308;19;20010;-86
2022/09/24 14:23:57;;;;;;;8.25;5.70;;;20.20;66.60;;;;;;7375313;19;20014;-86
2022/09/24 14:26:33;;;;;;;7.57;5.43;;;20.30;67.20;;;;;;7384431;19;20022;-86
2022/09/24 14:29:06;;;;;;;8.73;5.75;;;20.20;66.10;;;;;;7394457;19;20011;-86
2022/09/24 14:31:44;;;;;;;7.80;5.43;;;20.20;65.60;;;;;;7416918;19;20019;-87
2022/09/24 14:34:28;;;;;;;7.15;5.22;;;20.10;65.80;;;;;;7398744;19;20017;-88
2022/09/24 14:37:02;;;;;;;8.55;5.78;;;20.10;66.10;;;;;;7383971;19;20019;-88
2022/09/24 14:39:31;;;;;;;11.05;6.15;;;20.00;65.50;;;;;;7376965;19;20022;-87
2022/09/24 14:42:09;;;;;;;8.20;5.75;;;20.00;65.80;;;;;;7375987;19;20024;-86
2022/09/24 14:44:43;;;;;;;11.15;6.13;;;19.80;66.00;;;;;;7370870;19;20063;-86
2022/09/24 14:47:27;;;;;;;10.50;5.97;;;19.90;66.40;;;;;;7372280;19;20015;-87
2022/09/24 14:49:56;;;;;;;9.15;6.03;;;20.00;66.60;;;;;;7371783;19;20023;-87